createdAt,value
2023-03-12T00:00:18.051Z,4.90
2023-03-12T00:03:05.687Z,1.40
2023-03-12T00:05:33.405Z,8.70
2023-03-12T00:08:00.441Z,1.40
2023-03-12T00:10:27.748Z,4.00
2023-03-12T00:12:55.426Z,2.60
2023-03-12T00:15:22.657Z,3.10
2023-03-12T00:17:50.134Z,4.70
2023-03-12T00:20:18.294Z,3.90
2023-03-12T00:22:45.705Z,2.80
2023-03-12T00:25:15.672Z,3.30
2023-03-12T00:27:43.672Z,3.50
2023-03-12T00:30:11.880Z,3.80
2023-03-12T00:32:39.416Z,2.90
2023-03-12T00:35:07.383Z,2.50
2023-03-12T00:37:36.467Z,3.50
2023-03-12T00:40:08.022Z,2.30
2023-03-12T00:42:35.066Z,4.00
2023-03-12T00:45:02.508Z,2.60
2023-03-12T00:47:32.242Z,3.80
2023-03-12T00:49:59.204Z,1.80
2023-03-12T00:52:26.221Z,3.00
2023-03-12T00:54:57.669Z,3.50
2023-03-12T00:57:25.112Z,5.30
2023-03-12T00:59:54.584Z,3.90
2023-03-12T01:02:21.742Z,4.60
2023-03-12T01:04:48.938Z,4.00
2023-03-12T01:07:15.878Z,3.90
2023-03-12T01:09:42.886Z,4.10
2023-03-12T01:12:09.961Z,3.00
2023-03-12T01:14:36.998Z,3.40
2023-03-12T01:17:04.138Z,3.40
2023-03-12T01:19:31.208Z,3.90
2023-03-12T01:21:58.180Z,3.30
2023-03-12T01:24:27.574Z,2.80
2023-03-12T01:26:56.841Z,3.00
2023-03-12T01:29:24.302Z,5.20
2023-03-12T01:31:51.545Z,5.10
2023-03-12T01:34:18.571Z,4.20
2023-03-12T01:36:47.208Z,4.50
2023-03-12T01:39:17.041Z,5.50
2023-03-12T01:41:50.251Z,3.90
2023-03-12T01:44:20.553Z,2.50
2023-03-12T01:46:47.684Z,4.30
2023-03-12T01:49:25.125Z,4.40
2023-03-12T01:52:00.163Z,1.60
2023-03-12T01:54:42.506Z,3.30
2023-03-12T01:57:15.208Z,4.30
2023-03-12T01:59:53.029Z,4.60
2023-03-12T02:02:26.196Z,6.10
2023-03-12T02:05:38.648Z,8.20
2023-03-12T02:08:05.926Z,4.70
2023-03-12T02:10:32.931Z,4.60
2023-03-12T02:12:59.938Z,4.10
2023-03-12T02:15:27.418Z,4.90
2023-03-12T02:17:54.506Z,5.40
2023-03-12T02:20:50.195Z,7.40
2023-03-12T02:23:43.503Z,2.20
2023-03-12T02:26:11.799Z,4.60
2023-03-12T02:28:43.560Z,4.30
2023-03-12T02:31:19.402Z,5.30
2023-03-12T02:33:46.439Z,5.10
2023-03-12T02:36:16.318Z,7.30
2023-03-12T02:38:48.777Z,5.90
2023-03-12T02:41:32.432Z,3.70
2023-03-12T02:44:05.207Z,8.10
2023-03-12T02:46:36.160Z,3.70
2023-03-12T02:49:03.900Z,3.80
2023-03-12T02:51:31.486Z,3.90
2023-03-12T02:53:58.513Z,5.50
2023-03-12T02:56:27.553Z,4.30
2023-03-12T02:58:54.704Z,4.40
2023-03-12T03:01:22.177Z,5.90
2023-03-12T03:03:49.737Z,5.60
2023-03-12T03:06:17.543Z,4.80
2023-03-12T03:08:44.578Z,5.00
2023-03-12T03:11:12.222Z,5.50
2023-03-12T03:13:39.561Z,3.00
2023-03-12T03:16:07.442Z,4.10
2023-03-12T03:18:34.494Z,5.90
2023-03-12T03:21:05.231Z,2.30
2023-03-12T03:23:33.172Z,4.10
2023-03-12T03:26:00.288Z,6.50
2023-03-12T03:28:29.194Z,4.10
2023-03-12T03:31:00.906Z,5.00
2023-03-12T03:33:31.246Z,2.80
2023-03-12T03:36:00.821Z,4.60
2023-03-12T03:38:30.264Z,5.50
2023-03-12T03:40:57.538Z,6.30
2023-03-12T03:43:25.044Z,4.80
2023-03-12T03:46:03.910Z,6.60
2023-03-12T03:48:33.282Z,3.80
2023-03-12T03:51:05.552Z,5.80
2023-03-12T03:53:33.843Z,4.00
2023-03-12T03:56:12.023Z,4.50
2023-03-12T03:58:41.196Z,4.10
2023-03-12T04:01:08.892Z,6.00
2023-03-12T04:03:36.100Z,6.30
2023-03-12T04:06:06.269Z,5.30
2023-03-12T04:08:36.490Z,5.30
2023-03-12T04:11:10.733Z,4.60
2023-03-12T04:13:38.213Z,6.90
2023-03-12T04:16:06.128Z,4.90
2023-03-12T04:18:35.515Z,4.20
2023-03-12T04:21:05.198Z,6.00
2023-03-12T04:23:32.778Z,3.80
2023-03-12T04:25:59.968Z,7.90
2023-03-12T04:28:28.820Z,3.70
2023-03-12T04:31:01.192Z,4.30
2023-03-12T04:33:36.441Z,6.30
2023-03-12T04:36:04.685Z,4.90
2023-03-12T04:38:32.456Z,4.00
2023-03-12T04:40:59.465Z,5.60
2023-03-12T04:43:28.051Z,7.40
2023-03-12T04:45:56.323Z,6.10
2023-03-12T04:48:24.619Z,3.60
2023-03-12T04:50:51.845Z,3.40
2023-03-12T04:53:19.473Z,4.30
2023-03-12T04:55:47.306Z,3.40
2023-03-12T04:58:15.862Z,1.30
2023-03-12T05:00:47.847Z,2.10
2023-03-12T05:03:15.120Z,5.30
2023-03-12T05:05:43.077Z,3.70
2023-03-12T05:08:10.624Z,5.50
2023-03-12T05:10:38.368Z,4.30
2023-03-12T05:13:17.405Z,3.20
2023-03-12T05:15:47.195Z,5.50
2023-03-12T05:18:14.724Z,4.80
2023-03-12T05:20:41.986Z,4.40
2023-03-12T05:23:09.792Z,5.70
2023-03-12T05:25:41.033Z,7.50
2023-03-12T05:28:08.606Z,6.70
2023-03-12T05:30:36.095Z,7.20
2023-03-12T05:33:03.254Z,5.40
2023-03-12T05:35:31.724Z,3.80
2023-03-12T05:37:58.784Z,5.60
2023-03-12T05:40:28.134Z,6.50
2023-03-12T05:42:55.377Z,5.50
2023-03-12T05:45:23.705Z,4.20
2023-03-12T05:47:51.934Z,7.70
2023-03-12T05:50:19.449Z,6.30
2023-03-12T05:52:46.458Z,5.20
2023-03-12T05:55:13.374Z,4.50
2023-03-12T05:57:40.430Z,4.60
2023-03-12T06:00:08.196Z,5.80
2023-03-12T06:05:09.911Z,5.40
2023-03-12T06:07:37.223Z,5.70
2023-03-12T06:10:04.799Z,5.60
2023-03-12T06:12:31.984Z,5.90
2023-03-12T06:14:58.900Z,4.20
2023-03-12T06:17:29.322Z,6.60
2023-03-12T06:19:56.457Z,6.50
2023-03-12T06:22:24.838Z,5.40
2023-03-12T06:24:51.941Z,6.80
2023-03-12T06:27:19.021Z,6.40
2023-03-12T06:29:46.686Z,4.20
2023-03-12T06:32:14.578Z,5.00
2023-03-12T06:34:41.818Z,6.70
2023-03-12T06:37:08.883Z,6.40
2023-03-12T06:39:35.896Z,7.00
2023-03-12T06:42:03.379Z,4.00
2023-03-12T06:44:30.987Z,2.70
2023-03-12T06:46:58.293Z,5.00
2023-03-12T06:49:26.968Z,6.40
2023-03-12T06:51:56.609Z,4.80
2023-03-12T06:54:23.744Z,5.60
2023-03-12T06:56:50.813Z,7.70
2023-03-12T06:59:17.944Z,6.20
2023-03-12T07:01:44.894Z,9.80
2023-03-12T07:04:11.819Z,7.80
2023-03-12T07:06:38.812Z,4.40
2023-03-12T07:09:06.093Z,5.90
2023-03-12T07:11:33.082Z,8.20
2023-03-12T07:14:00.224Z,7.60
2023-03-12T07:16:27.915Z,6.90
2023-03-12T07:18:55.036Z,4.70
2023-03-12T07:21:23.146Z,5.40
2023-03-12T07:23:50.562Z,4.60
2023-03-12T07:26:18.769Z,6.30
2023-03-12T07:28:46.014Z,6.70
2023-03-12T07:31:13.071Z,7.20
2023-03-12T07:33:40.827Z,10.70
2023-03-12T07:36:08.457Z,3.70
2023-03-12T07:38:35.497Z,6.70
2023-03-12T07:41:02.737Z,6.00
2023-03-12T07:43:29.862Z,7.40
2023-03-12T07:45:57.040Z,5.70
2023-03-12T07:48:24.249Z,9.00
2023-03-12T07:50:52.180Z,6.10
2023-03-12T07:53:19.329Z,8.60
2023-03-12T07:55:47.084Z,10.50
2023-03-12T07:58:16.014Z,7.00
2023-03-12T08:00:44.431Z,4.70
2023-03-12T08:03:13.185Z,4.50
2023-03-12T08:05:40.990Z,5.40
2023-03-12T08:08:08.401Z,6.70
2023-03-12T08:10:36.539Z,3.50
2023-03-12T08:13:03.572Z,5.30
2023-03-12T08:15:31.164Z,4.80
2023-03-12T08:17:59.070Z,4.50
2023-03-12T08:20:25.903Z,7.40
2023-03-12T08:22:53.021Z,5.70
2023-03-12T08:25:24.092Z,5.20
2023-03-12T08:27:51.804Z,3.80
2023-03-12T08:30:20.474Z,4.80
2023-03-12T08:32:47.733Z,4.70
2023-03-12T08:35:16.151Z,7.20
2023-03-12T08:37:43.207Z,6.60
2023-03-12T08:40:13.537Z,2.70
2023-03-12T08:42:45.016Z,4.80
2023-03-12T08:45:12.583Z,3.10
2023-03-12T08:47:41.113Z,3.80
2023-03-12T08:50:11.542Z,4.00
2023-03-12T08:52:39.137Z,4.30
2023-03-12T08:55:06.889Z,3.80
2023-03-12T08:57:34.326Z,5.70
2023-03-12T09:00:04.274Z,5.00
2023-03-12T09:02:31.216Z,6.20
2023-03-12T09:04:58.339Z,6.00
2023-03-12T09:07:46.551Z,6.80
2023-03-12T09:10:16.536Z,6.00
2023-03-12T09:12:44.469Z,6.30
2023-03-12T09:15:12.066Z,5.10
2023-03-12T09:17:39.857Z,4.00
2023-03-12T09:20:09.700Z,4.70
2023-03-12T09:22:37.030Z,5.10
2023-03-12T09:25:05.503Z,3.70
2023-03-12T09:27:44.357Z,5.30
2023-03-12T09:30:17.186Z,5.30
2023-03-12T09:32:45.266Z,5.50
2023-03-12T09:35:15.739Z,4.10
2023-03-12T09:37:43.381Z,4.60
2023-03-12T09:40:22.376Z,5.30
2023-03-12T09:42:56.948Z,5.70
2023-03-12T09:45:27.407Z,6.50
2023-03-12T09:48:01.985Z,4.60
2023-03-12T09:50:28.921Z,4.80
2023-03-12T09:53:06.928Z,8.40
2023-03-12T09:55:40.797Z,6.10
2023-03-12T09:58:25.382Z,6.90
2023-03-12T10:01:14.140Z,5.90
2023-03-12T10:04:04.525Z,5.20
2023-03-12T10:06:56.875Z,5.90
2023-03-12T10:09:32.933Z,5.30
2023-03-12T10:12:06.007Z,8.50
2023-03-12T10:14:51.197Z,7.30
2023-03-12T10:17:47.137Z,5.90
2023-03-12T10:20:39.003Z,5.70
2023-03-12T10:23:12.090Z,4.90
2023-03-12T10:25:50.591Z,5.40
2023-03-12T10:28:36.357Z,9.10
2023-03-12T10:31:12.657Z,5.30
2023-03-12T10:33:53.074Z,4.90
2023-03-12T10:36:32.968Z,6.20
2023-03-12T10:39:00.370Z,20.70
2023-03-12T10:41:34.759Z,6.90
2023-03-12T10:44:08.055Z,13.20
2023-03-12T10:46:43.186Z,5.30
2023-03-12T10:49:22.602Z,5.10
2023-03-12T10:52:15.174Z,5.70
2023-03-12T10:54:44.606Z,5.00
2023-03-12T10:57:14.929Z,4.70
2023-03-12T10:59:44.980Z,4.60
2023-03-12T11:02:39.346Z,4.80
2023-03-12T11:05:29.373Z,4.10
2023-03-12T11:08:01.379Z,5.00
2023-03-12T11:10:44.857Z,4.80
2023-03-12T11:13:33.043Z,5.20
2023-03-12T11:16:02.908Z,6.30
2023-03-12T11:18:33.061Z,5.40
2023-03-12T11:21:09.306Z,7.00
2023-03-12T11:23:54.199Z,5.00
2023-03-12T11:26:23.456Z,9.30
2023-03-12T11:29:00.815Z,13.00
2023-03-12T11:31:39.528Z,6.10
2023-03-12T11:34:26.687Z,4.40
2023-03-12T11:37:21.037Z,10.80
2023-03-12T11:40:09.396Z,5.20
2023-03-12T11:42:52.682Z,5.10
2023-03-12T11:45:50.842Z,5.60
2023-03-12T11:48:35.891Z,4.50
2023-03-12T11:51:24.803Z,5.70
2023-03-12T11:54:11.341Z,4.80
2023-03-12T11:57:04.321Z,6.10
2023-03-12T12:02:56.856Z,5.60
2023-03-12T12:05:35.676Z,5.90
2023-03-12T12:08:21.633Z,4.70
2023-03-12T12:11:09.951Z,4.10
2023-03-12T12:13:52.118Z,5.20
2023-03-12T12:16:50.510Z,5.40
2023-03-12T12:19:29.552Z,7.60
2023-03-12T12:22:17.820Z,5.70
2023-03-12T12:25:03.328Z,5.10
2023-03-12T12:27:40.706Z,16.90
2023-03-12T12:30:42.020Z,7.60
2023-03-12T12:33:53.498Z,5.60
2023-03-12T12:36:22.428Z,5.30
2023-03-12T12:39:00.743Z,5.00
2023-03-12T12:41:32.867Z,6.80
2023-03-12T12:44:05.701Z,6.00
2023-03-12T12:46:41.204Z,5.10
2023-03-12T12:49:18.257Z,5.30
2023-03-12T12:51:53.328Z,4.30
2023-03-12T12:54:47.957Z,6.70
2023-03-12T12:57:38.444Z,5.30
2023-03-12T13:02:56.943Z,5.40
2023-03-12T13:05:26.986Z,10.00
2023-03-12T13:07:54.859Z,4.40
2023-03-12T13:10:34.374Z,5.70
2023-03-12T13:13:11.263Z,5.00
2023-03-12T13:15:43.108Z,5.60
2023-03-12T13:18:25.557Z,7.20
2023-03-12T13:20:52.447Z,4.00
2023-03-12T13:23:44.682Z,8.20
2023-03-12T13:26:18.598Z,6.30
2023-03-12T13:28:51.859Z,5.20
2023-03-12T13:31:28.312Z,4.30
2023-03-12T13:34:19.749Z,5.60
2023-03-12T13:36:51.536Z,6.60
2023-03-12T13:39:29.596Z,5.60
2023-03-12T13:41:58.588Z,5.20
2023-03-12T13:44:28.558Z,5.70
2023-03-12T13:47:04.979Z,6.20
2023-03-12T13:49:45.321Z,5.00
2023-03-12T13:52:23.356Z,5.60
2023-03-12T13:55:36.376Z,6.30
2023-03-12T13:58:37.661Z,4.60
2023-03-12T14:01:13.733Z,6.50
2023-03-12T14:03:47.694Z,7.90
2023-03-12T14:06:25.951Z,19.10
2023-03-12T14:09:14.462Z,5.60
2023-03-12T14:12:00.824Z,8.20
2023-03-12T14:15:13.221Z,12.30
2023-03-12T14:17:43.813Z,9.70
2023-03-12T14:20:22.548Z,18.30
2023-03-12T14:22:59.489Z,11.10
2023-03-12T14:25:38.464Z,22.10
2023-03-12T14:28:19.415Z,25.30
2023-03-12T14:30:55.415Z,14.00
2023-03-12T14:33:25.663Z,11.50
2023-03-12T14:36:04.301Z,55.40
2023-03-12T14:38:42.313Z,16.80
2023-03-12T14:41:15.483Z,14.80
2023-03-12T14:43:45.193Z,6.90
2023-03-12T14:46:21.090Z,8.70
2023-03-12T14:48:56.664Z,8.90
2023-03-12T14:51:27.689Z,50.90
2023-03-12T14:53:55.991Z,14.70
2023-03-12T14:56:29.503Z,8.00
2023-03-12T14:59:06.753Z,10.00
2023-03-12T15:01:38.861Z,15.00
2023-03-12T15:04:15.727Z,5.70
2023-03-12T15:06:53.320Z,5.20
2023-03-12T15:09:30.137Z,3.60
2023-03-12T15:12:23.767Z,7.40
2023-03-12T15:15:10.851Z,5.30
2023-03-12T15:17:38.205Z,6.10
2023-03-12T15:20:15.169Z,4.70
2023-03-12T15:22:42.958Z,7.00
2023-03-12T15:25:22.903Z,6.90
2023-03-12T15:28:01.306Z,6.60
2023-03-12T15:30:29.098Z,6.80
2023-03-12T15:33:10.249Z,7.10
2023-03-12T15:35:41.968Z,8.50
2023-03-12T15:38:15.781Z,14.80
2023-03-12T15:40:49.581Z,5.70
2023-03-12T15:43:21.035Z,8.80
2023-03-12T15:46:01.868Z,5.70
2023-03-12T15:48:38.286Z,5.80
2023-03-12T15:51:34.432Z,7.10
2023-03-12T15:54:24.955Z,13.90
2023-03-12T15:56:52.011Z,11.30
2023-03-12T15:59:24.515Z,15.50
2023-03-12T16:01:54.192Z,12.80
2023-03-12T16:04:25.463Z,6.70
2023-03-12T16:06:52.950Z,9.80
2023-03-12T16:09:25.745Z,11.00
2023-03-12T16:11:54.785Z,8.80
2023-03-12T16:14:36.428Z,10.70
2023-03-12T16:17:03.638Z,7.10
2023-03-12T16:19:33.939Z,8.20
2023-03-12T16:22:12.560Z,6.80
2023-03-12T16:27:32.608Z,10.00
2023-03-12T16:30:11.554Z,9.80
2023-03-12T16:32:38.846Z,11.20
2023-03-12T16:35:21.075Z,6.70
2023-03-12T16:37:58.931Z,7.70
2023-03-12T16:40:34.131Z,16.20
2023-03-12T16:43:12.417Z,14.00
2023-03-12T16:45:46.949Z,52.40
2023-03-12T16:48:25.348Z,91.00
2023-03-12T16:51:12.217Z,51.80
2023-03-12T16:53:39.571Z,21.50
2023-03-12T16:56:24.699Z,21.10
2023-03-12T16:59:15.890Z,21.60
2023-03-12T17:01:57.630Z,18.20
2023-03-12T17:04:31.682Z,16.90
2023-03-12T17:07:05.616Z,21.20
2023-03-12T17:09:34.984Z,27.30
2023-03-12T17:12:04.162Z,14.30
2023-03-12T17:14:38.888Z,22.30
2023-03-12T17:17:09.931Z,22.30
2023-03-12T17:19:59.198Z,23.30
2023-03-12T17:22:37.067Z,21.40
2023-03-12T17:25:27.345Z,22.60
2023-03-12T17:28:13.001Z,23.20
2023-03-12T17:30:46.830Z,17.50
2023-03-12T17:33:26.982Z,15.50
2023-03-12T17:36:14.671Z,11.60
2023-03-12T17:38:51.009Z,15.50
2023-03-12T17:41:27.325Z,22.50
2023-03-12T17:44:17.624Z,31.50
2023-03-12T17:46:59.293Z,38.80
2023-03-12T17:52:21.091Z,38.10
2023-03-12T17:54:55.114Z,36.40
2023-03-12T17:57:39.457Z,29.20
2023-03-12T18:00:35.135Z,29.60
2023-03-12T18:03:16.390Z,24.20
2023-03-12T18:06:00.463Z,23.10
2023-03-12T18:11:50.686Z,18.10
2023-03-12T18:14:51.507Z,29.00
2023-03-12T18:17:53.051Z,29.90
2023-03-12T18:20:40.560Z,20.10
2023-03-12T18:23:18.831Z,16.70
2023-03-12T18:25:55.926Z,14.50
2023-03-12T18:28:34.760Z,22.40
2023-03-12T18:31:08.951Z,21.20
2023-03-12T18:33:41.242Z,22.50
2023-03-12T18:36:16.257Z,20.40
2023-03-12T18:38:48.188Z,19.10
2023-03-12T18:41:30.545Z,16.50
2023-03-12T18:44:00.532Z,31.00
2023-03-12T18:46:33.333Z,29.20
2023-03-12T18:49:11.931Z,29.30
2023-03-12T18:51:47.252Z,27.80
2023-03-12T18:54:19.632Z,29.50
2023-03-12T18:57:02.583Z,27.90
2023-03-12T18:59:32.541Z,31.70
2023-03-12T19:02:02.065Z,27.40
2023-03-12T19:04:31.593Z,25.60
2023-03-12T19:07:01.206Z,14.70
2023-03-12T19:09:31.110Z,24.40
2023-03-12T19:12:02.457Z,21.00
2023-03-12T19:14:33.478Z,24.60
2023-03-12T19:17:11.453Z,30.00
2023-03-12T19:19:42.597Z,18.80
2023-03-12T19:22:12.859Z,29.10
2023-03-12T19:24:47.516Z,23.80
2023-03-12T19:27:15.093Z,22.80
2023-03-12T19:29:45.386Z,15.80
2023-03-12T19:32:12.467Z,12.40
2023-03-12T19:34:39.731Z,18.10
2023-03-12T19:37:08.384Z,20.80
2023-03-12T19:39:40.029Z,26.90
2023-03-12T19:44:46.506Z,20.80
2023-03-12T19:47:18.132Z,25.10
2023-03-12T19:49:45.643Z,41.20
2023-03-12T19:52:18.828Z,40.70
2023-03-12T19:55:03.235Z,36.80
2023-03-12T19:57:31.192Z,36.30
2023-03-12T20:00:01.691Z,38.20
2023-03-12T20:02:33.767Z,24.80
2023-03-12T20:05:04.418Z,24.10
2023-03-12T20:07:31.975Z,29.10
2023-03-12T20:10:00.670Z,32.40
2023-03-12T20:12:27.801Z,32.60
2023-03-12T20:14:54.982Z,41.50
2023-03-12T20:17:22.328Z,31.30
2023-03-12T20:19:49.759Z,25.70
2023-03-12T20:22:17.003Z,44.30
2023-03-12T20:24:51.322Z,43.90
2023-03-12T20:27:21.123Z,44.90
2023-03-12T20:29:50.262Z,48.70
2023-03-12T20:32:20.611Z,57.70
2023-03-12T20:34:49.035Z,59.90
2023-03-12T20:37:17.526Z,52.60
2023-03-12T20:39:47.101Z,50.00
2023-03-12T20:42:16.452Z,35.20
2023-03-12T20:44:46.313Z,48.70
2023-03-12T20:47:14.873Z,54.80
2023-03-12T20:49:43.255Z,42.70
2023-03-12T20:52:10.379Z,38.90
2023-03-12T20:54:37.538Z,33.00
2023-03-12T20:57:04.796Z,16.10
2023-03-12T20:59:32.028Z,23.40
2023-03-12T21:02:02.177Z,36.70
2023-03-12T21:04:29.459Z,35.70
2023-03-12T21:06:57.062Z,29.20
2023-03-12T21:09:27.428Z,15.40
2023-03-12T21:11:54.943Z,19.70
2023-03-12T21:14:22.158Z,28.20
2023-03-12T21:16:49.460Z,31.50
2023-03-12T21:19:16.575Z,35.40
2023-03-12T21:21:43.693Z,32.30
2023-03-12T21:24:11.012Z,32.70
2023-03-12T21:26:38.229Z,27.60
2023-03-12T21:29:05.358Z,32.30
2023-03-12T21:31:32.753Z,31.70
2023-03-12T21:33:59.821Z,32.30
2023-03-12T21:36:29.184Z,32.20
2023-03-12T21:39:01.358Z,30.40
2023-03-12T21:41:28.690Z,21.00
2023-03-12T21:43:55.627Z,15.50
2023-03-12T21:46:26.916Z,43.60
2023-03-12T21:48:54.708Z,42.60
2023-03-12T21:51:22.169Z,41.00
2023-03-12T21:53:54.131Z,35.50
2023-03-12T21:56:21.108Z,26.20
2023-03-12T21:58:48.223Z,35.40
2023-03-12T22:01:18.219Z,30.70
2023-03-12T22:03:46.168Z,24.80
2023-03-12T22:06:18.956Z,40.00
2023-03-12T22:08:47.767Z,21.20
2023-03-12T22:11:15.637Z,46.10
2023-03-12T22:13:42.682Z,36.50
2023-03-12T22:16:12.689Z,30.80
2023-03-12T22:18:42.507Z,54.60
2023-03-12T22:21:27.670Z,45.30
2023-03-12T22:23:56.726Z,40.60
2023-03-12T22:26:25.103Z,21.00
2023-03-12T22:28:54.892Z,48.90
2023-03-12T22:31:23.668Z,42.00
2023-03-12T22:33:51.196Z,41.70
2023-03-12T22:36:19.255Z,40.60
2023-03-12T22:38:49.145Z,27.70
2023-03-12T22:41:20.503Z,30.60
2023-03-12T22:43:48.906Z,19.90
2023-03-12T22:46:17.127Z,14.80
2023-03-12T22:48:45.525Z,21.90
2023-03-12T22:51:12.962Z,24.30
2023-03-12T22:53:40.132Z,30.80
2023-03-12T22:56:10.201Z,20.50
2023-03-12T22:58:37.722Z,23.90
2023-03-12T23:01:08.062Z,19.00
2023-03-12T23:03:36.442Z,37.30
2023-03-12T23:06:08.185Z,42.80
2023-03-12T23:08:35.127Z,38.70
2023-03-12T23:11:03.767Z,40.30
2023-03-12T23:13:33.550Z,33.80
2023-03-12T23:16:08.550Z,44.20
2023-03-12T23:18:35.854Z,44.70
2023-03-12T23:21:05.988Z,35.20
2023-03-12T23:23:33.190Z,38.60
2023-03-12T23:26:01.014Z,26.60
2023-03-12T23:28:29.383Z,35.70
2023-03-12T23:31:09.818Z,20.70
2023-03-12T23:33:37.562Z,41.40
2023-03-12T23:36:08.581Z,38.90
2023-03-12T23:38:37.653Z,35.30
2023-03-12T23:41:07.483Z,33.20
2023-03-12T23:43:35.520Z,29.20
2023-03-12T23:46:04.973Z,34.30
2023-03-12T23:48:33.465Z,30.80
2023-03-12T23:51:06.680Z,15.40
2023-03-12T23:53:34.827Z,14.30
2023-03-12T23:56:03.568Z,12.00
2023-03-12T23:58:30.644Z,31.60
